Terminal Aerodrome Forecast
Issued by NWS Los Angeles, CA

Home | Current Version | Previous Version | Text Only | Print | Product List | Glossary On
Versions: 1 2 3 4 5 6 7 8 9 10 11 12 13 14 15 16 17 18 19 20 21 22 23 24 25 26 27 28
000
FTUS46 KLOX 270527
TAFSMX
TAF
KSMX 270527Z 2706/2806 30006KT P6SM BKN250
     FM270700 30006KT P6SM BKN015
     FM271000 VRB04KT 6SM BR OVC007
     FM271600 30006KT P6SM SCT010
     FM272000 30012KT P6SM SCT250
     FM280400 31008KT P6SM BKN015=

USA.gov is the U.S. government's official web portal to all federal, state and local government web resources and services.